YARG

Details ICAO YARG (GYL)
Name Argyle
Region Australia
Timezone Australia/Perth (UTC+8.0)
Plans Departing 2
Arriving 4
Stats Elevation 522 ft / 159 m (AMSL)
Location -16.635039° 128.450603°
Runways 1
Magnetic Variation 2.667° E
Sunrise 2017-12-17 20:50:29 UTC / 2017-12-18 04:50:29 Local
Sunset 2017-12-18 09:57:30 UTC / 2017-12-18 17:57:30 Local
Advertisement - Login to hide

Runways

ID Width Length Bearing (true) Bearing (mag) Surface Threshold Offset Overrun Length
2 98 ft / 30 m 8,164 ft / 2,488 m 21.27° 18.60° Asphalt 285 ft / 87 m 0 ft / 0 m
20 98 ft / 30 m 8,164 ft / 2,488 m 201.27° 198.60° Asphalt 305 ft / 93 m 0 ft / 0 m

Map

Weather


0- 5 10 15 20 25 30 35+ Temperature / ° C

Clouds and Precipitation
Forecast for 2017-12-18 12:00 UTC. Updated 20 minutes ago

Ground ~20,000 ft ~40,000 ft Winds

METAR

YARG 181100Z AUTO 04009KT 9999 // NCD 33/23 Q1006

TAF

Not found

Frequencies

Unicom 127.30 MHz CTAF
Warning: Do not use this data for real-world aviation or navigation. No guarantee of current accuracy is given.